Curionopolis, Brazil
Current Conditions -  °F | °C
As of 11:00 AM on Wednesday 22 Oct 2014 (Local Time) from SBMA Reporting Station
Broken Clouds Broken Clouds  
Wind Chill: 84°   Ceiling: 1500
Heat Index: 92°   Visibility: 6mi
Dew Point: 75°   Wind: 8mph
Humidity: 74%   Direction: 100°E
Pressure: 29.94"   Gusts: NA
Location:  6.1°S, 49.6°W
Report Text: SBMA 221400Z 10007KT 9999 BKN015 BKN100 29/24 Q1014
Loading
Personal Weather Stations






























Interactive Weather Map
Tropical Storm Tracking
New forecast layout! Learn more

10-Day Weather Forecast

Advertisements
Track Severe Weather on mobile